createdAt,value
2019-03-17T15:02:37.554Z,99.90
2019-03-17T15:05:08.205Z,99.90
2019-03-17T15:07:38.654Z,99.90
2019-03-17T15:10:11.310Z,99.90
2019-03-17T15:12:41.824Z,99.90
2019-03-17T15:15:13.001Z,99.90
2019-03-17T15:17:43.375Z,99.90
2019-03-17T15:20:18.321Z,99.40
2019-03-17T15:22:48.881Z,99.90
2019-03-17T15:25:19.421Z,99.00
2019-03-17T15:27:49.605Z,99.90
2019-03-17T15:30:21.874Z,99.90
2019-03-17T15:32:52.014Z,99.90
2019-03-17T15:35:22.140Z,99.90
2019-03-17T15:37:52.914Z,99.90
2019-03-17T15:40:23.363Z,99.90
2019-03-17T15:42:53.509Z,99.40
2019-03-17T15:45:23.531Z,99.90
2019-03-17T15:47:53.965Z,99.90
2019-03-17T15:50:24.352Z,99.90
2019-03-17T15:52:54.622Z,99.90
2019-03-17T15:55:24.962Z,99.90
2019-03-17T15:57:55.751Z,99.90
2019-03-17T16:00:27.051Z,99.90
2019-03-17T16:02:57.718Z,99.90
2019-03-17T16:05:28.484Z,99.90
2019-03-17T16:07:58.204Z,99.90
2019-03-17T16:10:28.407Z,99.90
2019-03-17T16:12:59.245Z,99.90
2019-03-17T16:15:29.366Z,99.90
2019-03-17T16:17:59.487Z,99.90
2019-03-17T16:20:29.491Z,99.90
2019-03-17T16:22:59.230Z,99.90
2019-03-17T16:25:29.600Z,99.90
2019-03-17T16:28:00.075Z,99.90
2019-03-17T16:30:30.174Z,99.90
2019-03-17T16:33:00.537Z,99.90
2019-03-17T16:35:31.223Z,99.90
2019-03-17T16:38:01.662Z,99.90
2019-03-17T16:40:31.786Z,99.90
2019-03-17T16:43:02.534Z,99.90
2019-03-17T16:45:32.179Z,99.90
2019-03-17T16:48:02.697Z,99.90
2019-03-17T16:50:33.383Z,99.90
2019-03-17T16:53:04.144Z,99.90
2019-03-17T16:55:34.608Z,99.90
2019-03-17T16:58:04.848Z,99.90
2019-03-17T17:00:35.539Z,99.90
2019-03-17T17:03:05.992Z,99.90
2019-03-17T17:05:36.335Z,99.90
2019-03-17T17:08:07.104Z,99.90
2019-03-17T17:10:39.004Z,99.90
2019-03-17T17:13:09.785Z,99.90
2019-03-17T17:15:40.303Z,99.90
2019-03-17T17:18:10.691Z,99.90
2019-03-17T17:20:41.473Z,99.90
2019-03-17T17:23:11.307Z,99.90
2019-03-17T17:25:42.124Z,99.90
2019-03-17T17:28:12.567Z,99.90
2019-03-17T17:30:42.975Z,99.90
2019-03-17T17:33:12.994Z,99.90
2019-03-17T17:35:43.335Z,99.90
2019-03-17T17:38:13.356Z,99.90
2019-03-17T17:40:43.903Z,99.90
2019-03-17T17:43:14.388Z,99.90
2019-03-17T17:45:44.415Z,99.90
2019-03-17T17:48:17.131Z,99.90
2019-03-17T17:50:47.332Z,99.90
2019-03-17T17:53:17.819Z,99.90
2019-03-17T17:55:48.179Z,99.90
2019-03-17T17:58:18.528Z,99.90
2019-03-17T18:00:48.955Z,99.90
2019-03-17T18:03:19.463Z,99.90
2019-03-17T18:05:50.274Z,99.90
2019-03-17T18:08:20.567Z,99.90
2019-03-17T18:10:50.615Z,99.90
2019-03-17T18:13:20.793Z,99.90
2019-03-17T18:15:50.891Z,99.90
2019-03-17T18:18:21.481Z,99.90
2019-03-17T18:20:51.504Z,99.90
2019-03-17T18:23:21.890Z,99.90
2019-03-17T18:25:52.254Z,99.90
2019-03-17T18:28:22.388Z,99.90
2019-03-17T18:30:52.489Z,99.90
2019-03-17T18:33:22.820Z,99.90
2019-03-17T18:35:53.203Z,99.30
2019-03-17T18:38:24.104Z,99.60
2019-03-17T18:40:54.517Z,99.60
2019-03-17T18:43:24.959Z,99.60
2019-03-17T18:45:54.991Z,98.70
2019-03-17T18:48:25.338Z,98.80
2019-03-17T18:50:55.903Z,98.80
2019-03-17T18:53:26.295Z,98.80
2019-03-17T18:55:56.006Z,98.80
2019-03-17T18:58:27.721Z,98.90
2019-03-17T19:00:57.399Z,98.60
2019-03-17T19:03:27.143Z,98.90
2019-03-17T19:06:16.182Z,99.30
2019-03-17T19:08:46.600Z,99.60
2019-03-17T19:11:16.627Z,99.60
2019-03-17T19:13:46.677Z,99.60
2019-03-17T19:16:16.756Z,99.80
2019-03-17T19:18:47.070Z,99.90
2019-03-17T19:21:17.121Z,99.30
2019-03-17T19:23:47.521Z,99.50
2019-03-17T19:26:18.256Z,99.30
2019-03-17T19:28:48.632Z,99.40
2019-03-17T19:31:19.440Z,99.20
2019-03-17T19:33:49.093Z,99.30
2019-03-17T19:36:19.507Z,99.10
2019-03-17T19:38:49.775Z,99.40
2019-03-17T19:41:20.177Z,99.20
2019-03-17T19:43:50.170Z,99.30
2019-03-17T19:46:20.960Z,99.20
2019-03-17T19:48:51.380Z,99.60
2019-03-17T19:51:21.385Z,99.30
2019-03-17T19:53:51.766Z,99.50
2019-03-17T19:56:22.249Z,98.80
2019-03-17T19:58:52.696Z,98.90
2019-03-17T20:01:23.017Z,98.90
2019-03-17T20:03:53.492Z,98.80
2019-03-17T20:06:23.581Z,98.50
2019-03-17T20:08:54.384Z,99.00
2019-03-17T20:11:25.875Z,98.40
2019-03-17T20:13:56.699Z,98.30
2019-03-17T20:16:26.803Z,98.50
2019-03-17T20:18:57.674Z,98.30
2019-03-17T20:21:28.172Z,98.10
2019-03-17T20:23:58.190Z,97.90
2019-03-17T20:26:28.534Z,98.10
2019-03-17T20:28:58.920Z,97.50
2019-03-17T20:31:29.353Z,97.90
2019-03-17T20:34:00.192Z,98.30
2019-03-17T20:36:30.934Z,98.30
2019-03-17T20:39:01.090Z,98.80
2019-03-17T20:41:31.239Z,98.80
2019-03-17T20:44:01.536Z,98.80
2019-03-17T20:46:31.726Z,98.90
2019-03-17T20:49:01.972Z,98.70
2019-03-17T20:51:32.481Z,99.10
2019-03-17T20:54:03.020Z,99.00
2019-03-17T20:56:33.422Z,98.90
2019-03-17T20:59:04.195Z,98.90
